sensor_id;sensor_type;location;lat;lon;timestamp;P1;durP1;ratioP1;P2;durP2;ratioP2
68457;SDS011;65384;52.016;5.428;2023-05-07T00:01:48;13.63;;;8.30;;
68457;SDS011;65384;52.016;5.428;2023-05-07T00:04:14;11.90;;;8.38;;
68457;SDS011;65384;52.016;5.428;2023-05-07T00:06:39;14.13;;;8.85;;
68457;SDS011;65384;52.016;5.428;2023-05-07T00:09:05;17.33;;;9.35;;
68457;SDS011;65384;52.016;5.428;2023-05-07T00:11:31;11.75;;;8.13;;
68457;SDS011;65384;52.016;5.428;2023-05-07T00:13:56;13.85;;;8.43;;
68457;SDS011;65384;52.016;5.428;2023-05-07T00:16:22;15.25;;;8.25;;
68457;SDS011;65384;52.016;5.428;2023-05-07T00:18:47;12.25;;;8.00;;
68457;SDS011;65384;52.016;5.428;2023-05-07T00:21:12;12.88;;;8.63;;
68457;SDS011;65384;52.016;5.428;2023-05-07T00:23:38;12.05;;;8.10;;
68457;SDS011;65384;52.016;5.428;2023-05-07T00:26:03;12.77;;;8.10;;
68457;SDS011;65384;52.016;5.428;2023-05-07T00:28:29;15.27;;;9.32;;
68457;SDS011;65384;52.016;5.428;2023-05-07T00:30:54;12.88;;;7.75;;
68457;SDS011;65384;52.016;5.428;2023-05-07T00:33:20;13.45;;;8.15;;
68457;SDS011;65384;52.016;5.428;2023-05-07T00:35:45;10.85;;;7.82;;
68457;SDS011;65384;52.016;5.428;2023-05-07T00:38:11;13.85;;;8.20;;
68457;SDS011;65384;52.016;5.428;2023-05-07T00:40:36;14.10;;;7.90;;
68457;SDS011;65384;52.016;5.428;2023-05-07T00:43:02;10.20;;;7.55;;
68457;SDS011;65384;52.016;5.428;2023-05-07T00:45:28;13.65;;;8.10;;
68457;SDS011;65384;52.016;5.428;2023-05-07T00:48:00;14.10;;;8.07;;
68457;SDS011;65384;52.016;5.428;2023-05-07T00:50:26;11.80;;;7.75;;
68457;SDS011;65384;52.016;5.428;2023-05-07T00:52:52;14.38;;;8.23;;
68457;SDS011;65384;52.016;5.428;2023-05-07T00:55:18;12.40;;;7.63;;
68457;SDS011;65384;52.016;5.428;2023-05-07T00:57:43;14.70;;;7.82;;
68457;SDS011;65384;52.016;5.428;2023-05-07T01:00:09;12.80;;;7.47;;
68457;SDS011;65384;52.016;5.428;2023-05-07T01:02:37;12.30;;;7.22;;
68457;SDS011;65384;52.016;5.428;2023-05-07T01:05:06;12.05;;;7.15;;
68457;SDS011;65384;52.016;5.428;2023-05-07T01:07:34;13.38;;;7.07;;
68457;SDS011;65384;52.016;5.428;2023-05-07T01:10:00;11.77;;;7.35;;
68457;SDS011;65384;52.016;5.428;2023-05-07T01:12:26;11.43;;;6.95;;
68457;SDS011;65384;52.016;5.428;2023-05-07T01:14:52;11.50;;;7.43;;
68457;SDS011;65384;52.016;5.428;2023-05-07T01:17:18;13.63;;;7.50;;
68457;SDS011;65384;52.016;5.428;2023-05-07T01:19:44;14.15;;;7.40;;
68457;SDS011;65384;52.016;5.428;2023-05-07T01:22:09;12.15;;;7.65;;
68457;SDS011;65384;52.016;5.428;2023-05-07T01:24:36;12.88;;;7.40;;
68457;SDS011;65384;52.016;5.428;2023-05-07T01:27:02;12.13;;;7.47;;
68457;SDS011;65384;52.016;5.428;2023-05-07T01:29:27;14.70;;;8.23;;
68457;SDS011;65384;52.016;5.428;2023-05-07T01:31:53;15.23;;;8.25;;
68457;SDS011;65384;52.016;5.428;2023-05-07T01:34:19;12.68;;;7.75;;
68457;SDS011;65384;52.016;5.428;2023-05-07T01:36:46;14.40;;;8.50;;
68457;SDS011;65384;52.016;5.428;2023-05-07T01:39:12;13.35;;;8.32;;
68457;SDS011;65384;52.016;5.428;2023-05-07T01:41:37;12.60;;;8.27;;
68457;SDS011;65384;52.016;5.428;2023-05-07T01:44:03;12.23;;;7.68;;
68457;SDS011;65384;52.016;5.428;2023-05-07T01:46:29;12.13;;;8.13;;
68457;SDS011;65384;52.016;5.428;2023-05-07T01:48:56;14.82;;;9.02;;
68457;SDS011;65384;52.016;5.428;2023-05-07T01:51:21;13.45;;;8.80;;
68457;SDS011;65384;52.016;5.428;2023-05-07T01:53:47;14.43;;;8.90;;
68457;SDS011;65384;52.016;5.428;2023-05-07T01:56:16;13.02;;;8.57;;
68457;SDS011;65384;52.016;5.428;2023-05-07T01:58:42;14.88;;;9.55;;
68457;SDS011;65384;52.016;5.428;2023-05-07T02:01:07;15.77;;;9.32;;
68457;SDS011;65384;52.016;5.428;2023-05-07T02:03:33;15.77;;;10.00;;
68457;SDS011;65384;52.016;5.428;2023-05-07T02:05:58;15.30;;;10.10;;
68457;SDS011;65384;52.016;5.428;2023-05-07T02:08:23;14.68;;;9.63;;
68457;SDS011;65384;52.016;5.428;2023-05-07T02:10:49;17.83;;;10.60;;
68457;SDS011;65384;52.016;5.428;2023-05-07T02:13:16;16.73;;;10.38;;
68457;SDS011;65384;52.016;5.428;2023-05-07T02:15:41;17.52;;;10.43;;
68457;SDS011;65384;52.016;5.428;2023-05-07T02:18:07;17.75;;;11.00;;
68457;SDS011;65384;52.016;5.428;2023-05-07T02:20:33;17.90;;;11.02;;
68457;SDS011;65384;52.016;5.428;2023-05-07T02:22:59;19.75;;;11.10;;
68457;SDS011;65384;52.016;5.428;2023-05-07T02:25:25;17.83;;;11.07;;
68457;SDS011;65384;52.016;5.428;2023-05-07T02:27:50;17.92;;;11.07;;
68457;SDS011;65384;52.016;5.428;2023-05-07T02:30:16;16.95;;;11.10;;
68457;SDS011;65384;52.016;5.428;2023-05-07T02:32:41;17.40;;;10.70;;
68457;SDS011;65384;52.016;5.428;2023-05-07T02:35:07;19.60;;;10.65;;
68457;SDS011;65384;52.016;5.428;2023-05-07T02:37:32;16.52;;;9.25;;
68457;SDS011;65384;52.016;5.428;2023-05-07T02:39:58;15.90;;;9.30;;
68457;SDS011;65384;52.016;5.428;2023-05-07T02:42:23;14.65;;;8.98;;
68457;SDS011;65384;52.016;5.428;2023-05-07T02:44:48;15.40;;;9.60;;
68457;SDS011;65384;52.016;5.428;2023-05-07T02:47:14;16.02;;;10.05;;
68457;SDS011;65384;52.016;5.428;2023-05-07T02:49:40;18.05;;;11.13;;
68457;SDS011;65384;52.016;5.428;2023-05-07T02:52:05;19.27;;;12.00;;
68457;SDS011;65384;52.016;5.428;2023-05-07T02:54:31;18.95;;;12.82;;
68457;SDS011;65384;52.016;5.428;2023-05-07T02:56:56;20.33;;;12.05;;
68457;SDS011;65384;52.016;5.428;2023-05-07T02:59:22;22.13;;;12.20;;
68457;SDS011;65384;52.016;5.428;2023-05-07T03:01:48;22.08;;;12.77;;
68457;SDS011;65384;52.016;5.428;2023-05-07T03:04:14;21.02;;;12.73;;
68457;SDS011;65384;52.016;5.428;2023-05-07T03:06:39;21.58;;;12.82;;
68457;SDS011;65384;52.016;5.428;2023-05-07T03:09:05;24.15;;;13.73;;
68457;SDS011;65384;52.016;5.428;2023-05-07T03:11:30;21.95;;;13.52;;
68457;SDS011;65384;52.016;5.428;2023-05-07T03:13:55;23.85;;;14.23;;
68457;SDS011;65384;52.016;5.428;2023-05-07T03:16:21;25.45;;;14.45;;
68457;SDS011;65384;52.016;5.428;2023-05-07T03:18:46;22.52;;;13.13;;
68457;SDS011;65384;52.016;5.428;2023-05-07T03:21:11;23.90;;;13.88;;
68457;SDS011;65384;52.016;5.428;2023-05-07T03:23:37;25.00;;;14.15;;
68457;SDS011;65384;52.016;5.428;2023-05-07T03:26:02;25.60;;;14.57;;
68457;SDS011;65384;52.016;5.428;2023-05-07T03:28:28;25.25;;;14.52;;
68457;SDS011;65384;52.016;5.428;2023-05-07T03:30:53;22.38;;;14.60;;
68457;SDS011;65384;52.016;5.428;2023-05-07T03:33:18;22.42;;;14.35;;
68457;SDS011;65384;52.016;5.428;2023-05-07T03:35:44;24.92;;;14.63;;
68457;SDS011;65384;52.016;5.428;2023-05-07T03:38:09;22.67;;;12.95;;
68457;SDS011;65384;52.016;5.428;2023-05-07T03:40:36;20.75;;;11.80;;
68457;SDS011;65384;52.016;5.428;2023-05-07T03:43:01;19.67;;;12.13;;
68457;SDS011;65384;52.016;5.428;2023-05-07T03:45:27;21.25;;;12.23;;
68457;SDS011;65384;52.016;5.428;2023-05-07T03:47:52;21.13;;;12.75;;
68457;SDS011;65384;52.016;5.428;2023-05-07T03:50:17;21.80;;;13.57;;
68457;SDS011;65384;52.016;5.428;2023-05-07T03:52:44;22.65;;;13.45;;
68457;SDS011;65384;52.016;5.428;2023-05-07T03:55:10;25.17;;;14.73;;
68457;SDS011;65384;52.016;5.428;2023-05-07T03:57:35;26.77;;;14.32;;
68457;SDS011;65384;52.016;5.428;2023-05-07T04:00:00;28.42;;;15.70;;
68457;SDS011;65384;52.016;5.428;2023-05-07T04:02:26;27.42;;;15.70;;
68457;SDS011;65384;52.016;5.428;2023-05-07T04:04:51;26.20;;;15.70;;
68457;SDS011;65384;52.016;5.428;2023-05-07T04:07:17;29.30;;;15.90;;
68457;SDS011;65384;52.016;5.428;2023-05-07T04:09:42;28.75;;;16.48;;
68457;SDS011;65384;52.016;5.428;2023-05-07T04:12:07;29.70;;;16.23;;
68457;SDS011;65384;52.016;5.428;2023-05-07T04:14:33;33.33;;;16.42;;
68457;SDS011;65384;52.016;5.428;2023-05-07T04:16:59;30.35;;;16.77;;
68457;SDS011;65384;52.016;5.428;2023-05-07T04:19:24;26.80;;;15.27;;
68457;SDS011;65384;52.016;5.428;2023-05-07T04:21:50;26.83;;;15.93;;
68457;SDS011;65384;52.016;5.428;2023-05-07T04:24:15;26.83;;;15.70;;
68457;SDS011;65384;52.016;5.428;2023-05-07T04:26:41;27.63;;;15.80;;
68457;SDS011;65384;52.016;5.428;2023-05-07T04:29:06;25.85;;;15.25;;
68457;SDS011;65384;52.016;5.428;2023-05-07T04:31:31;24.85;;;14.27;;
68457;SDS011;65384;52.016;5.428;2023-05-07T04:33:57;25.50;;;14.80;;
68457;SDS011;65384;52.016;5.428;2023-05-07T04:36:22;24.83;;;14.73;;
68457;SDS011;65384;52.016;5.428;2023-05-07T04:38:47;25.13;;;14.73;;
68457;SDS011;65384;52.016;5.428;2023-05-07T04:41:13;24.92;;;14.23;;
68457;SDS011;65384;52.016;5.428;2023-05-07T04:43:39;23.58;;;14.43;;
68457;SDS011;65384;52.016;5.428;2023-05-07T04:46:05;23.83;;;14.50;;
68457;SDS011;65384;52.016;5.428;2023-05-07T04:48:30;22.77;;;13.68;;
68457;SDS011;65384;52.016;5.428;2023-05-07T04:50:55;21.27;;;13.48;;
68457;SDS011;65384;52.016;5.428;2023-05-07T04:53:21;21.33;;;13.10;;
68457;SDS011;65384;52.016;5.428;2023-05-07T04:55:46;21.98;;;13.60;;
68457;SDS011;65384;52.016;5.428;2023-05-07T04:58:12;23.10;;;13.73;;
68457;SDS011;65384;52.016;5.428;2023-05-07T05:00:37;24.50;;;12.82;;
68457;SDS011;65384;52.016;5.428;2023-05-07T05:03:04;20.40;;;12.93;;
68457;SDS011;65384;52.016;5.428;2023-05-07T05:05:30;23.00;;;14.02;;
68457;SDS011;65384;52.016;5.428;2023-05-07T05:07:55;23.63;;;14.00;;
68457;SDS011;65384;52.016;5.428;2023-05-07T05:10:21;22.60;;;14.07;;
68457;SDS011;65384;52.016;5.428;2023-05-07T05:12:47;22.10;;;13.57;;
68457;SDS011;65384;52.016;5.428;2023-05-07T05:15:12;22.67;;;14.20;;
68457;SDS011;65384;52.016;5.428;2023-05-07T05:17:38;23.13;;;14.57;;
68457;SDS011;65384;52.016;5.428;2023-05-07T05:20:04;22.77;;;14.23;;
68457;SDS011;65384;52.016;5.428;2023-05-07T05:22:30;23.35;;;14.25;;
68457;SDS011;65384;52.016;5.428;2023-05-07T05:24:56;26.23;;;13.85;;
68457;SDS011;65384;52.016;5.428;2023-05-07T05:27:22;23.55;;;14.63;;
68457;SDS011;65384;52.016;5.428;2023-05-07T05:29:47;22.88;;;14.57;;
68457;SDS011;65384;52.016;5.428;2023-05-07T05:32:12;22.38;;;13.98;;
68457;SDS011;65384;52.016;5.428;2023-05-07T05:34:38;24.20;;;14.00;;
68457;SDS011;65384;52.016;5.428;2023-05-07T05:37:03;23.75;;;13.93;;
68457;SDS011;65384;52.016;5.428;2023-05-07T05:39:28;23.13;;;13.52;;
68457;SDS011;65384;52.016;5.428;2023-05-07T05:41:54;19.88;;;13.45;;
68457;SDS011;65384;52.016;5.428;2023-05-07T05:44:19;21.52;;;13.18;;
68457;SDS011;65384;52.016;5.428;2023-05-07T05:46:45;22.17;;;13.63;;
68457;SDS011;65384;52.016;5.428;2023-05-07T05:49:10;23.20;;;13.32;;
68457;SDS011;65384;52.016;5.428;2023-05-07T05:51:35;22.65;;;12.20;;
68457;SDS011;65384;52.016;5.428;2023-05-07T05:54:01;20.30;;;12.77;;
68457;SDS011;65384;52.016;5.428;2023-05-07T05:56:26;23.55;;;12.68;;
68457;SDS011;65384;52.016;5.428;2023-05-07T05:58:52;21.55;;;12.70;;
68457;SDS011;65384;52.016;5.428;2023-05-07T06:01:17;21.23;;;12.88;;
68457;SDS011;65384;52.016;5.428;2023-05-07T06:03:43;22.95;;;12.77;;
68457;SDS011;65384;52.016;5.428;2023-05-07T06:06:09;22.00;;;13.00;;
68457;SDS011;65384;52.016;5.428;2023-05-07T06:08:34;20.60;;;12.68;;
68457;SDS011;65384;52.016;5.428;2023-05-07T06:11:00;21.05;;;12.63;;
68457;SDS011;65384;52.016;5.428;2023-05-07T06:13:26;21.42;;;12.82;;
68457;SDS011;65384;52.016;5.428;2023-05-07T06:15:51;21.63;;;13.20;;
68457;SDS011;65384;52.016;5.428;2023-05-07T06:18:17;23.17;;;13.63;;
68457;SDS011;65384;52.016;5.428;2023-05-07T06:20:42;20.73;;;13.00;;
68457;SDS011;65384;52.016;5.428;2023-05-07T06:23:07;23.10;;;13.23;;
68457;SDS011;65384;52.016;5.428;2023-05-07T06:25:33;21.05;;;12.75;;
68457;SDS011;65384;52.016;5.428;2023-05-07T06:27:58;20.15;;;12.85;;
68457;SDS011;65384;52.016;5.428;2023-05-07T06:30:23;23.90;;;13.35;;
68457;SDS011;65384;52.016;5.428;2023-05-07T06:32:49;19.95;;;12.95;;
68457;SDS011;65384;52.016;5.428;2023-05-07T06:35:14;22.55;;;13.25;;
68457;SDS011;65384;52.016;5.428;2023-05-07T06:37:40;25.83;;;13.77;;
68457;SDS011;65384;52.016;5.428;2023-05-07T06:40:07;21.98;;;13.65;;
68457;SDS011;65384;52.016;5.428;2023-05-07T06:42:33;23.38;;;13.88;;
68457;SDS011;65384;52.016;5.428;2023-05-07T06:44:59;22.27;;;13.63;;
68457;SDS011;65384;52.016;5.428;2023-05-07T06:47:24;23.08;;;13.70;;
68457;SDS011;65384;52.016;5.428;2023-05-07T06:49:50;23.95;;;14.43;;
68457;SDS011;65384;52.016;5.428;2023-05-07T06:52:15;24.08;;;14.20;;
68457;SDS011;65384;52.016;5.428;2023-05-07T06:54:40;22.00;;;13.57;;
68457;SDS011;65384;52.016;5.428;2023-05-07T06:57:06;25.67;;;14.48;;
68457;SDS011;65384;52.016;5.428;2023-05-07T06:59:32;23.38;;;13.75;;
68457;SDS011;65384;52.016;5.428;2023-05-07T07:01:57;20.52;;;13.60;;
68457;SDS011;65384;52.016;5.428;2023-05-07T07:04:22;22.45;;;13.55;;
68457;SDS011;65384;52.016;5.428;2023-05-07T07:06:49;22.63;;;14.23;;
68457;SDS011;65384;52.016;5.428;2023-05-07T07:09:14;20.42;;;13.30;;
68457;SDS011;65384;52.016;5.428;2023-05-07T07:11:40;22.27;;;13.93;;
68457;SDS011;65384;52.016;5.428;2023-05-07T07:14:05;24.30;;;14.77;;
68457;SDS011;65384;52.016;5.428;2023-05-07T07:16:30;23.20;;;14.35;;
68457;SDS011;65384;52.016;5.428;2023-05-07T07:18:56;24.50;;;13.73;;
68457;SDS011;65384;52.016;5.428;2023-05-07T07:21:21;23.20;;;13.52;;
68457;SDS011;65384;52.016;5.428;2023-05-07T07:23:46;23.77;;;13.85;;
68457;SDS011;65384;52.016;5.428;2023-05-07T07:26:12;25.38;;;13.70;;
68457;SDS011;65384;52.016;5.428;2023-05-07T07:28:44;20.10;;;13.63;;
68457;SDS011;65384;52.016;5.428;2023-05-07T07:31:12;19.02;;;12.10;;
68457;SDS011;65384;52.016;5.428;2023-05-07T07:33:38;20.23;;;12.88;;
68457;SDS011;65384;52.016;5.428;2023-05-07T07:36:04;20.27;;;12.57;;
68457;SDS011;65384;52.016;5.428;2023-05-07T07:38:30;19.25;;;12.23;;
68457;SDS011;65384;52.016;5.428;2023-05-07T07:40:56;18.08;;;11.35;;
68457;SDS011;65384;52.016;5.428;2023-05-07T07:43:21;22.65;;;11.88;;
68457;SDS011;65384;52.016;5.428;2023-05-07T07:45:46;17.85;;;11.02;;
68457;SDS011;65384;52.016;5.428;2023-05-07T07:48:12;17.35;;;11.25;;
68457;SDS011;65384;52.016;5.428;2023-05-07T07:50:37;18.27;;;11.80;;
68457;SDS011;65384;52.016;5.428;2023-05-07T07:53:03;18.80;;;11.80;;
68457;SDS011;65384;52.016;5.428;2023-05-07T07:55:28;21.10;;;12.73;;
68457;SDS011;65384;52.016;5.428;2023-05-07T07:57:54;18.23;;;12.05;;
68457;SDS011;65384;52.016;5.428;2023-05-07T08:00:19;20.50;;;11.88;;
68457;SDS011;65384;52.016;5.428;2023-05-07T08:02:45;19.15;;;12.50;;
68457;SDS011;65384;52.016;5.428;2023-05-07T08:05:10;20.70;;;12.80;;
68457;SDS011;65384;52.016;5.428;2023-05-07T08:07:35;19.92;;;12.80;;
68457;SDS011;65384;52.016;5.428;2023-05-07T08:10:01;27.73;;;14.70;;
68457;SDS011;65384;52.016;5.428;2023-05-07T08:12:27;25.27;;;14.23;;
68457;SDS011;65384;52.016;5.428;2023-05-07T08:14:52;23.42;;;14.57;;
68457;SDS011;65384;52.016;5.428;2023-05-07T08:17:18;25.42;;;14.65;;
68457;SDS011;65384;52.016;5.428;2023-05-07T08:19:43;26.75;;;15.20;;
68457;SDS011;65384;52.016;5.428;2023-05-07T08:22:09;22.58;;;14.85;;
68457;SDS011;65384;52.016;5.428;2023-05-07T08:24:35;28.10;;;15.82;;
68457;SDS011;65384;52.016;5.428;2023-05-07T08:27:01;26.30;;;16.05;;
68457;SDS011;65384;52.016;5.428;2023-05-07T08:29:26;24.63;;;15.63;;
68457;SDS011;65384;52.016;5.428;2023-05-07T08:31:52;26.88;;;15.60;;
68457;SDS011;65384;52.016;5.428;2023-05-07T08:34:17;27.77;;;15.43;;
68457;SDS011;65384;52.016;5.428;2023-05-07T08:36:42;25.08;;;15.82;;
68457;SDS011;65384;52.016;5.428;2023-05-07T08:39:08;27.80;;;15.63;;
68457;SDS011;65384;52.016;5.428;2023-05-07T08:41:34;25.17;;;15.40;;
68457;SDS011;65384;52.016;5.428;2023-05-07T08:43:59;25.45;;;15.30;;
68457;SDS011;65384;52.016;5.428;2023-05-07T08:46:29;24.50;;;14.98;;
68457;SDS011;65384;52.016;5.428;2023-05-07T08:48:57;24.15;;;15.10;;
68457;SDS011;65384;52.016;5.428;2023-05-07T08:51:22;22.92;;;14.77;;
68457;SDS011;65384;52.016;5.428;2023-05-07T08:53:48;22.92;;;14.90;;
68457;SDS011;65384;52.016;5.428;2023-05-07T08:56:15;23.17;;;15.10;;
68457;SDS011;65384;52.016;5.428;2023-05-07T08:58:41;22.77;;;14.00;;
68457;SDS011;65384;52.016;5.428;2023-05-07T09:01:10;22.33;;;13.90;;
68457;SDS011;65384;52.016;5.428;2023-05-07T09:03:38;25.05;;;15.52;;
68457;SDS011;65384;52.016;5.428;2023-05-07T09:06:04;24.45;;;14.93;;
68457;SDS011;65384;52.016;5.428;2023-05-07T09:08:32;23.10;;;14.65;;
68457;SDS011;65384;52.016;5.428;2023-05-07T09:10:58;22.05;;;13.65;;
68457;SDS011;65384;52.016;5.428;2023-05-07T09:13:23;22.15;;;14.35;;
68457;SDS011;65384;52.016;5.428;2023-05-07T09:15:48;27.10;;;14.55;;
68457;SDS011;65384;52.016;5.428;2023-05-07T09:18:14;24.80;;;14.70;;
68457;SDS011;65384;52.016;5.428;2023-05-07T09:20:41;21.85;;;14.77;;
68457;SDS011;65384;52.016;5.428;2023-05-07T09:23:07;22.23;;;14.15;;
68457;SDS011;65384;52.016;5.428;2023-05-07T09:25:33;25.30;;;13.82;;
68457;SDS011;65384;52.016;5.428;2023-05-07T09:28:00;23.92;;;14.70;;
68457;SDS011;65384;52.016;5.428;2023-05-07T09:30:32;23.67;;;14.13;;
68457;SDS011;65384;52.016;5.428;2023-05-07T09:32:59;18.98;;;12.50;;
68457;SDS011;65384;52.016;5.428;2023-05-07T09:35:25;19.52;;;12.77;;
68457;SDS011;65384;52.016;5.428;2023-05-07T09:37:58;21.88;;;13.60;;
68457;SDS011;65384;52.016;5.428;2023-05-07T09:40:25;21.80;;;12.82;;
68457;SDS011;65384;52.016;5.428;2023-05-07T09:42:52;19.70;;;13.02;;
68457;SDS011;65384;52.016;5.428;2023-05-07T09:45:36;21.10;;;12.98;;
68457;SDS011;65384;52.016;5.428;2023-05-07T09:48:01;19.08;;;12.13;;
68457;SDS011;65384;52.016;5.428;2023-05-07T09:50:32;20.58;;;12.27;;
68457;SDS011;65384;52.016;5.428;2023-05-07T09:53:01;18.37;;;12.60;;
68457;SDS011;65384;52.016;5.428;2023-05-07T09:55:28;18.45;;;12.30;;
68457;SDS011;65384;52.016;5.428;2023-05-07T09:57:53;20.40;;;12.68;;
68457;SDS011;65384;52.016;5.428;2023-05-07T10:00:21;17.92;;;11.55;;
68457;SDS011;65384;52.016;5.428;2023-05-07T10:02:47;17.15;;;11.48;;
68457;SDS011;65384;52.016;5.428;2023-05-07T10:05:14;21.85;;;11.75;;
68457;SDS011;65384;52.016;5.428;2023-05-07T10:07:40;14.77;;;9.70;;
68457;SDS011;65384;52.016;5.428;2023-05-07T10:10:06;12.43;;;8.85;;
68457;SDS011;65384;52.016;5.428;2023-05-07T10:12:32;13.85;;;9.32;;
68457;SDS011;65384;52.016;5.428;2023-05-07T10:15:04;16.15;;;10.10;;
68457;SDS011;65384;52.016;5.428;2023-05-07T10:17:31;16.52;;;10.52;;
68457;SDS011;65384;52.016;5.428;2023-05-07T10:19:56;15.77;;;10.80;;
68457;SDS011;65384;52.016;5.428;2023-05-07T10:22:22;16.75;;;10.52;;
68457;SDS011;65384;52.016;5.428;2023-05-07T10:24:47;17.13;;;11.23;;
68457;SDS011;65384;52.016;5.428;2023-05-07T10:27:14;18.58;;;11.57;;
68457;SDS011;65384;52.016;5.428;2023-05-07T10:32:39;15.98;;;10.07;;
68457;SDS011;65384;52.016;5.428;2023-05-07T10:35:29;17.23;;;10.32;;
68457;SDS011;65384;52.016;5.428;2023-05-07T10:37:52;14.40;;;9.88;;
68457;SDS011;65384;52.016;5.428;2023-05-07T10:40:17;15.27;;;9.55;;
68457;SDS011;65384;52.016;5.428;2023-05-07T10:42:54;14.98;;;9.73;;
68457;SDS011;65384;52.016;5.428;2023-05-07T10:45:20;14.88;;;9.32;;
68457;SDS011;65384;52.016;5.428;2023-05-07T10:50:31;14.90;;;9.07;;
68457;SDS011;65384;52.016;5.428;2023-05-07T10:55:44;13.52;;;7.90;;
68457;SDS011;65384;52.016;5.428;2023-05-07T10:58:23;11.60;;;7.18;;
68457;SDS011;65384;52.016;5.428;2023-05-07T11:00:55;9.32;;;5.20;;
68457;SDS011;65384;52.016;5.428;2023-05-07T11:03:21;11.95;;;6.55;;
68457;SDS011;65384;52.016;5.428;2023-05-07T11:05:47;11.80;;;7.03;;
68457;SDS011;65384;52.016;5.428;2023-05-07T11:08:13;11.40;;;6.35;;
68457;SDS011;65384;52.016;5.428;2023-05-07T11:10:52;11.23;;;6.35;;
68457;SDS011;65384;52.016;5.428;2023-05-07T11:16:28;8.82;;;4.90;;
68457;SDS011;65384;52.016;5.428;2023-05-07T11:18:55;10.00;;;4.88;;
68457;SDS011;65384;52.016;5.428;2023-05-07T11:21:31;10.80;;;5.13;;
68457;SDS011;65384;52.016;5.428;2023-05-07T11:23:59;9.10;;;5.30;;
68457;SDS011;65384;52.016;5.428;2023-05-07T11:26:26;8.57;;;5.15;;
68457;SDS011;65384;52.016;5.428;2023-05-07T11:28:52;13.60;;;5.30;;
68457;SDS011;65384;52.016;5.428;2023-05-07T11:31:23;8.68;;;4.80;;
68457;SDS011;65384;52.016;5.428;2023-05-07T11:33:51;7.28;;;3.72;;
68457;SDS011;65384;52.016;5.428;2023-05-07T11:36:17;4.55;;;2.90;;
68457;SDS011;65384;52.016;5.428;2023-05-07T11:38:43;6.05;;;3.28;;
68457;SDS011;65384;52.016;5.428;2023-05-07T11:41:08;7.50;;;3.03;;
68457;SDS011;65384;52.016;5.428;2023-05-07T11:43:34;7.82;;;2.63;;
68457;SDS011;65384;52.016;5.428;2023-05-07T11:46:10;9.32;;;2.60;;
68457;SDS011;65384;52.016;5.428;2023-05-07T11:48:36;4.97;;;3.03;;
68457;SDS011;65384;52.016;5.428;2023-05-07T11:51:02;4.53;;;2.78;;
68457;SDS011;65384;52.016;5.428;2023-05-07T11:53:35;6.45;;;3.53;;
68457;SDS011;65384;52.016;5.428;2023-05-07T11:56:07;7.10;;;3.45;;
68457;SDS011;65384;52.016;5.428;2023-05-07T11:58:37;6.50;;;3.28;;
68457;SDS011;65384;52.016;5.428;2023-05-07T12:01:02;7.32;;;3.70;;
68457;SDS011;65384;52.016;5.428;2023-05-07T12:03:28;6.63;;;2.97;;
68457;SDS011;65384;52.016;5.428;2023-05-07T12:05:53;5.68;;;3.30;;
68457;SDS011;65384;52.016;5.428;2023-05-07T12:08:19;6.68;;;3.03;;
68457;SDS011;65384;52.016;5.428;2023-05-07T12:10:46;5.72;;;3.38;;
68457;SDS011;65384;52.016;5.428;2023-05-07T12:15:45;6.88;;;3.70;;
68457;SDS011;65384;52.016;5.428;2023-05-07T12:18:11;9.85;;;4.03;;
68457;SDS011;65384;52.016;5.428;2023-05-07T12:20:37;8.27;;;3.92;;
68457;SDS011;65384;52.016;5.428;2023-05-07T12:23:03;6.85;;;4.10;;
68457;SDS011;65384;52.016;5.428;2023-05-07T12:25:35;7.57;;;3.60;;
68457;SDS011;65384;52.016;5.428;2023-05-07T12:28:05;10.07;;;3.70;;
68457;SDS011;65384;52.016;5.428;2023-05-07T12:30:37;7.20;;;3.63;;
68457;SDS011;65384;52.016;5.428;2023-05-07T12:33:03;8.18;;;3.67;;
68457;SDS011;65384;52.016;5.428;2023-05-07T12:35:29;9.73;;;3.70;;
68457;SDS011;65384;52.016;5.428;2023-05-07T12:37:56;6.15;;;3.33;;
68457;SDS011;65384;52.016;5.428;2023-05-07T12:40:24;8.50;;;3.85;;
68457;SDS011;65384;52.016;5.428;2023-05-07T12:42:49;5.45;;;3.40;;
68457;SDS011;65384;52.016;5.428;2023-05-07T12:45:18;8.32;;;3.85;;
68457;SDS011;65384;52.016;5.428;2023-05-07T12:47:44;6.55;;;4.00;;
68457;SDS011;65384;52.016;5.428;2023-05-07T12:50:10;6.63;;;3.30;;
68457;SDS011;65384;52.016;5.428;2023-05-07T12:52:36;8.23;;;4.00;;
68457;SDS011;65384;52.016;5.428;2023-05-07T12:55:05;6.75;;;3.85;;
68457;SDS011;65384;52.016;5.428;2023-05-07T12:57:37;9.75;;;4.32;;
68457;SDS011;65384;52.016;5.428;2023-05-07T13:00:06;6.82;;;3.90;;
68457;SDS011;65384;52.016;5.428;2023-05-07T13:02:32;7.32;;;4.50;;
68457;SDS011;65384;52.016;5.428;2023-05-07T13:04:59;9.00;;;5.00;;
68457;SDS011;65384;52.016;5.428;2023-05-07T13:07:25;10.15;;;6.63;;
68457;SDS011;65384;52.016;5.428;2023-05-07T13:09:50;9.68;;;5.80;;
68457;SDS011;65384;52.016;5.428;2023-05-07T13:12:15;8.13;;;4.68;;
68457;SDS011;65384;52.016;5.428;2023-05-07T13:14:41;7.85;;;5.00;;
68457;SDS011;65384;52.016;5.428;2023-05-07T13:17:06;7.95;;;4.80;;
68457;SDS011;65384;52.016;5.428;2023-05-07T13:19:31;9.02;;;5.35;;
68457;SDS011;65384;52.016;5.428;2023-05-07T13:21:57;8.00;;;4.70;;
68457;SDS011;65384;52.016;5.428;2023-05-07T13:24:22;9.15;;;4.90;;
68457;SDS011;65384;52.016;5.428;2023-05-07T13:26:47;7.32;;;4.50;;
68457;SDS011;65384;52.016;5.428;2023-05-07T13:29:13;8.10;;;4.95;;
68457;SDS011;65384;52.016;5.428;2023-05-07T13:31:38;7.68;;;4.55;;
68457;SDS011;65384;52.016;5.428;2023-05-07T13:34:07;8.38;;;4.82;;
68457;SDS011;65384;52.016;5.428;2023-05-07T13:36:33;10.98;;;5.35;;
68457;SDS011;65384;52.016;5.428;2023-05-07T13:39:02;8.82;;;5.07;;
68457;SDS011;65384;52.016;5.428;2023-05-07T13:41:28;8.20;;;4.43;;
68457;SDS011;65384;52.016;5.428;2023-05-07T13:43:54;6.63;;;4.40;;
68457;SDS011;65384;52.016;5.428;2023-05-07T13:46:19;7.53;;;4.40;;
68457;SDS011;65384;52.016;5.428;2023-05-07T13:48:45;10.48;;;4.80;;
68457;SDS011;65384;52.016;5.428;2023-05-07T13:51:10;8.32;;;3.60;;
68457;SDS011;65384;52.016;5.428;2023-05-07T13:53:36;11.98;;;8.68;;
68457;SDS011;65384;52.016;5.428;2023-05-07T13:56:01;13.73;;;9.18;;
68457;SDS011;65384;52.016;5.428;2023-05-07T13:58:29;15.63;;;9.32;;
68457;SDS011;65384;52.016;5.428;2023-05-07T14:00:55;17.90;;;9.93;;
68457;SDS011;65384;52.016;5.428;2023-05-07T14:03:20;13.85;;;9.40;;
68457;SDS011;65384;52.016;5.428;2023-05-07T14:05:45;14.40;;;9.68;;
68457;SDS011;65384;52.016;5.428;2023-05-07T14:08:11;13.23;;;8.60;;
68457;SDS011;65384;52.016;5.428;2023-05-07T14:10:38;14.35;;;9.43;;
68457;SDS011;65384;52.016;5.428;2023-05-07T14:13:04;15.18;;;9.02;;
68457;SDS011;65384;52.016;5.428;2023-05-07T14:15:30;17.30;;;9.43;;
68457;SDS011;65384;52.016;5.428;2023-05-07T14:17:57;13.32;;;9.00;;
68457;SDS011;65384;52.016;5.428;2023-05-07T14:20:23;13.45;;;9.55;;
68457;SDS011;65384;52.016;5.428;2023-05-07T14:22:49;13.43;;;9.18;;
68457;SDS011;65384;52.016;5.428;2023-05-07T14:25:15;13.02;;;9.05;;
68457;SDS011;65384;52.016;5.428;2023-05-07T14:27:40;15.90;;;10.10;;
68457;SDS011;65384;52.016;5.428;2023-05-07T14:30:06;16.13;;;10.07;;
68457;SDS011;65384;52.016;5.428;2023-05-07T14:32:32;15.63;;;10.63;;
68457;SDS011;65384;52.016;5.428;2023-05-07T14:34:58;16.55;;;11.07;;
68457;SDS011;65384;52.016;5.428;2023-05-07T14:37:23;15.40;;;10.90;;